createdAt,value
2022-09-22T07:01:47.192Z,0.73
2022-09-22T07:04:17.808Z,0.60
2022-09-22T07:06:50.813Z,0.70
2022-09-22T07:09:20.086Z,0.98
2022-09-22T07:11:49.160Z,0.80
2022-09-22T07:14:19.478Z,0.80
2022-09-22T07:16:48.281Z,0.82
2022-09-22T07:19:17.018Z,0.80
2022-09-22T07:21:47.922Z,0.70
2022-09-22T07:24:16.671Z,0.70
2022-09-22T07:26:46.652Z,0.57
2022-09-22T07:29:16.842Z,0.50
2022-09-22T07:31:45.532Z,0.50
2022-09-22T07:34:14.973Z,0.40
2022-09-22T07:36:44.198Z,0.85
2022-09-22T07:39:14.354Z,0.90
2022-09-22T07:41:43.767Z,0.50
2022-09-22T07:44:31.038Z,1.02
2022-09-22T07:47:00.370Z,1.08
2022-09-22T07:49:29.384Z,1.05
2022-09-22T07:51:58.359Z,1.05
2022-09-22T07:54:29.099Z,0.80
2022-09-22T07:56:59.347Z,0.85
2022-09-22T08:06:56.660Z,0.50
2022-09-22T08:09:28.323Z,0.20
2022-09-22T09:53:40.908Z,0.75
2022-09-22T11:52:19.185Z,0.10
2022-09-22T11:55:02.405Z,0.30
2022-09-22T11:57:36.244Z,0.40
2022-09-22T12:00:09.816Z,0.20
2022-09-22T12:02:44.540Z,0.20
2022-09-22T12:05:18.089Z,0.20
2022-09-22T12:07:55.796Z,0.20
2022-09-22T12:10:35.377Z,0.30
2022-09-22T12:13:05.270Z,0.30
2022-09-22T12:15:39.511Z,0.30
2022-09-22T12:18:13.637Z,0.35
2022-09-22T12:20:55.058Z,0.20
2022-09-22T12:23:39.274Z,0.25
2022-09-22T12:26:10.349Z,0.20
2022-09-22T12:28:42.202Z,0.20
2022-09-22T12:31:14.581Z,0.20
2022-09-22T12:33:48.883Z,0.40
2022-09-22T12:36:20.140Z,0.45
2022-09-22T12:38:50.938Z,0.30
2022-09-22T12:41:21.360Z,0.57
2022-09-22T12:43:50.183Z,0.28
2022-09-22T12:46:27.944Z,0.30
2022-09-22T12:48:56.781Z,0.30
2022-09-22T12:51:33.856Z,0.30
2022-09-22T12:54:48.140Z,0.43
